Time;durP1;ratioP1;P1;durP2;ratioP2;P2;SDS_P1;SDS_P2;PMS_P1;PMS_P2;Temp;Humidity;BMP_temperature;BMP_pressure;BME280_temperature;BME280_humidity;BME280_pressure;Samples;Min_cycle;Max_cycle;Signal;HPM_P1;HPM_P2
2023/08/31 00:01:32;;;;;;;;;;;19.20;84.70;;;;;;5027100;28;19920;-69
2023/08/31 00:04:00;;;;;;;;;;;20.00;83.20;;;;;;5028540;28;19917;-70
2023/08/31 00:06:26;;;;;;;;;;;21.50;77.80;;;;;;5029925;28;20359;-69
2023/08/31 00:08:53;;;;;;;;;;;22.10;73.70;;;;;;5030710;28;20371;-69
2023/08/31 00:11:19;;;;;;;;;;;22.40;70.50;;;;;;5030996;28;19989;-69
2023/08/31 00:13:46;;;;;;;;;;;22.30;70.70;;;;;;5030327;28;19936;-69
2023/08/31 00:16:13;;;;;;;;;;;22.00;71.10;;;;;;5037825;28;19913;-68
2023/08/31 00:18:41;;;;;;;;;;;21.90;70.00;;;;;;5030412;28;19975;-69
2023/08/31 00:21:08;;;;;;;;;;;22.20;72.40;;;;;;5042531;28;19940;-69
2023/08/31 00:23:36;;;;;;;;;;;22.40;72.10;;;;;;5031439;28;19913;-69
2023/08/31 00:26:03;;;;;;;;;;;23.10;68.80;;;;;;5028132;28;19963;-69
2023/08/31 00:28:30;;;;;;;;;;;23.20;68.60;;;;;;5030341;28;20396;-69
2023/08/31 00:30:57;;;;;;;;;;;23.70;66.40;;;;;;5028115;28;19971;-69
2023/08/31 00:33:26;;;;;;;;;;;24.10;65.00;;;;;;5025035;28;19924;-70
2023/08/31 00:35:52;;;;;;;;;;;24.50;64.00;;;;;;5022857;28;20322;-69
2023/08/31 00:38:19;;;;;;;;;;;24.50;61.90;;;;;;5025627;28;19913;-69
2023/08/31 00:40:46;;;;;;;;;;;24.50;61.90;;;;;;5023791;28;19982;-69
2023/08/31 00:43:18;;;;;;;;;;;24.70;61.60;;;;;;5027032;28;20353;-70
2023/08/31 00:45:46;;;;;;;;;;;24.70;62.20;;;;;;5024545;28;20032;-69
2023/08/31 00:48:15;;;;;;;;;;;25.10;60.20;;;;;;5025679;28;19925;-69
2023/08/31 00:50:41;;;;;;;;;;;25.70;58.60;;;;;;5029347;28;19967;-68
2023/08/31 00:53:08;;;;;;;;;;;25.50;58.60;;;;;;5028806;28;19917;-69
2023/08/31 00:55:35;;;;;;;;;;;25.50;57.90;;;;;;5025696;28;19914;-69
2023/08/31 00:58:02;;;;;;;;;;;25.20;59.20;;;;;;5027774;28;19951;-69
2023/08/31 01:00:40;;;;;;;;;;;25.20;59.50;;;;;;5031774;28;19917;-70
2023/08/31 01:03:13;;;;;;;;;;;25.40;59.50;;;;;;5030105;28;19913;-70
2023/08/31 01:05:43;;;;;;;;;;;26.10;56.30;;;;;;5028533;28;20020;-69
2023/08/31 01:08:25;;;;;;;;;;;25.30;56.20;;;;;;5024040;28;20310;-70
2023/08/31 01:10:59;;;;;;;;;;;24.90;58.50;;;;;;5028453;28;19913;-69
2023/08/31 01:13:27;;;;;;;;;;;25.00;60.70;;;;;;5029090;28;19960;-70
2023/08/31 01:15:56;;;;;;;;;;;25.40;59.50;;;;;;5026822;28;19972;-70
2023/08/31 01:18:26;;;;;;;;;;;25.50;56.40;;;;;;5030190;28;19913;-70
2023/08/31 01:21:11;;;;;;;;;;;25.80;56.00;;;;;;5031252;28;19968;-69
2023/08/31 01:23:54;;;;;;;;;;;25.50;55.40;;;;;;5029571;28;19920;-70
2023/08/31 01:26:21;;;;;;;;;;;25.30;55.80;;;;;;5030380;28;19960;-70
2023/08/31 01:28:48;;;;;;;;;;;25.60;56.30;;;;;;5031037;28;19918;-70
2023/08/31 01:31:16;;;;;;;;;;;25.90;55.80;;;;;;5027810;28;19924;-69
2023/08/31 01:33:43;;;;;;;;;;;26.40;54.90;;;;;;5027868;28;19917;-69
2023/08/31 01:36:23;;;;;;;;;;;26.50;54.30;;;;;;5027833;28;19909;-70
2023/08/31 01:38:54;;;;;;;;;;;26.30;54.10;;;;;;5028118;28;19921;-70
2023/08/31 01:41:22;;;;;;;;;;;26.70;51.70;;;;;;5025723;28;19924;-70
2023/08/31 01:43:49;;;;;;;;;;;26.70;51.50;;;;;;5032351;28;20547;-69
2023/08/31 01:46:16;;;;;;;;;;;26.70;53.30;;;;;;5030481;28;19972;-70
2023/08/31 01:48:43;;;;;;;;;;;27.20;52.30;;;;;;5036355;28;19936;-69
2023/08/31 01:51:12;;;;;;;;;;;26.70;51.40;;;;;;5031877;28;19916;-70
2023/08/31 01:53:39;;;;;;;;;;;25.70;52.60;;;;;;5044156;28;19917;-70
2023/08/31 01:56:05;;;;;;;;;;;25.40;51.50;;;;;;5029765;28;19920;-70
2023/08/31 01:58:32;;;;;;;;;;;24.80;52.40;;;;;;5031540;28;19920;-69
2023/08/31 02:00:59;;;;;;;;;;;25.20;52.10;;;;;;5030168;28;19917;-70
2023/08/31 02:03:26;;;;;;;;;;;25.80;54.00;;;;;;5028471;28;19913;-70
2023/08/31 02:05:53;;;;;;;;;;;25.90;51.70;;;;;;5032957;28;19913;-70
2023/08/31 02:08:19;;;;;;;;;;;26.20;48.40;;;;;;5034402;28;19929;-70
2023/08/31 02:10:49;;;;;;;;;;;25.70;48.70;;;;;;5028907;28;20797;-69
2023/08/31 02:13:16;;;;;;;;;;;25.30;49.90;;;;;;5032671;28;19980;-70
2023/08/31 02:15:43;;;;;;;;;;;25.60;52.90;;;;;;5034669;28;20386;-68
2023/08/31 02:18:10;;;;;;;;;;;25.30;49.80;;;;;;5026104;28;19913;-70
2023/08/31 02:20:36;;;;;;;;;;;25.60;52.00;;;;;;5028136;28;20010;-70
2023/08/31 02:23:03;;;;;;;;;;;25.50;52.40;;;;;;5025808;28;19996;-71
2023/08/31 02:25:30;;;;;;;;;;;25.80;51.10;;;;;;5028714;28;19914;-68
2023/08/31 02:27:57;;;;;;;;;;;26.30;50.00;;;;;;5024863;28;20040;-70
2023/08/31 02:30:23;;;;;;;;;;;27.00;49.00;;;;;;5031448;28;19912;-69
2023/08/31 02:32:50;;;;;;;;;;;26.70;47.30;;;;;;5024316;28;19924;-70
2023/08/31 02:35:17;;;;;;;;;;;26.40;48.10;;;;;;5028156;28;19913;-69
2023/08/31 02:37:43;;;;;;;;;;;26.20;50.00;;;;;;5032785;28;20017;-69
2023/08/31 02:40:10;;;;;;;;;;;26.10;49.70;;;;;;5033066;28;19941;-70
2023/08/31 02:42:37;;;;;;;;;;;26.10;48.90;;;;;;5037817;28;19913;-70
2023/08/31 02:45:04;;;;;;;;;;;25.90;49.90;;;;;;5035478;28;19929;-70
2023/08/31 02:47:31;;;;;;;;;;;25.90;48.40;;;;;;5044495;28;19916;-70
2023/08/31 02:49:57;;;;;;;;;;;26.40;48.00;;;;;;5043243;28;19917;-70
2023/08/31 02:52:24;;;;;;;;;;;26.50;49.00;;;;;;5034316;28;19916;-70
2023/08/31 02:54:51;;;;;;;;;;;26.80;49.60;;;;;;5044529;28;20004;-69
2023/08/31 02:57:19;;;;;;;;;;;26.80;49.10;;;;;;5048874;28;19913;-70
2023/08/31 02:59:50;;;;;;;;;;;27.30;50.10;;;;;;5033905;28;19913;-70
2023/08/31 03:02:16;;;;;;;;;;;27.40;46.50;;;;;;5033430;28;20393;-70
2023/08/31 03:04:43;;;;;;;;;;;26.90;45.50;;;;;;5051594;28;20381;-70
2023/08/31 03:07:13;;;;;;;;;;;26.20;47.40;;;;;;5036344;28;19925;-70
2023/08/31 03:09:40;;;;;;;;;;;25.70;51.20;;;;;;5021417;28;19920;-69
2023/08/31 03:12:07;;;;;;;;;;;25.30;50.60;;;;;;5044117;28;20000;-70
2023/08/31 03:14:34;;;;;;;;;;;24.90;50.20;;;;;;5035038;28;20345;-69
2023/08/31 03:17:00;;;;;;;;;;;24.80;50.30;;;;;;5037139;28;19916;-69
2023/08/31 03:19:27;;;;;;;;;;;24.60;52.10;;;;;;5033508;28;19921;-70
2023/08/31 03:21:53;;;;;;;;;;;24.30;55.80;;;;;;5032699;28;19913;-71
2023/08/31 03:24:20;;;;;;;;;;;23.80;56.50;;;;;;5039877;28;20031;-70
2023/08/31 03:26:47;;;;;;;;;;;23.60;57.40;;;;;;5032155;28;19921;-69
2023/08/31 03:29:13;;;;;;;;;;;23.50;58.00;;;;;;5033593;28;19963;-70
2023/08/31 03:31:40;;;;;;;;;;;23.50;58.70;;;;;;5034424;28;19920;-69
2023/08/31 03:34:07;;;;;;;;;;;23.20;57.50;;;;;;5040086;28;19917;-69
2023/08/31 03:36:33;;;;;;;;;;;23.10;57.10;;;;;;5031717;28;19917;-69
2023/08/31 03:39:00;;;;;;;;;;;23.20;57.70;;;;;;5032567;28;19920;-69
2023/08/31 03:41:27;;;;;;;;;;;22.90;57.50;;;;;;5032904;28;19920;-69
2023/08/31 03:43:53;;;;;;;;;;;22.90;57.80;;;;;;5030642;28;20023;-70
2023/08/31 03:46:20;;;;;;;;;;;23.00;56.80;;;;;;5032758;28;19921;-69
2023/08/31 03:48:47;;;;;;;;;;;22.80;56.40;;;;;;5033439;28;19936;-69
2023/08/31 03:51:13;;;;;;;;;;;22.80;57.50;;;;;;5029980;28;19917;-69
2023/08/31 03:53:40;;;;;;;;;;;23.00;55.70;;;;;;5044493;28;20259;-69
2023/08/31 03:56:07;;;;;;;;;;;23.30;54.70;;;;;;5031187;28;19921;-70
2023/08/31 03:58:34;;;;;;;;;;;23.80;55.00;;;;;;5038850;28;19913;-69
2023/08/31 04:01:00;;;;;;;;;;;24.30;53.80;;;;;;5035391;28;19919;-69
2023/08/31 04:03:27;;;;;;;;;;;24.50;51.20;;;;;;5039521;28;19916;-69
2023/08/31 04:05:57;;;;;;;;;;;24.30;52.70;;;;;;5043613;28;20321;-70
2023/08/31 04:08:23;;;;;;;;;;;24.60;53.50;;;;;;5041777;28;19931;-70
2023/08/31 04:10:50;;;;;;;;;;;24.90;51.70;;;;;;5031333;28;19917;-70
2023/08/31 04:13:17;;;;;;;;;;;25.20;53.00;;;;;;5029393;28;19917;-70
2023/08/31 04:15:43;;;;;;;;;;;25.00;49.60;;;;;;5035192;28;19913;-70
2023/08/31 04:18:10;;;;;;;;;;;24.70;51.90;;;;;;5035017;28;20022;-70
2023/08/31 04:20:37;;;;;;;;;;;24.50;50.40;;;;;;5031702;28;20390;-69
2023/08/31 04:23:04;;;;;;;;;;;23.80;51.80;;;;;;5035062;28;19913;-69
2023/08/31 04:25:31;;;;;;;;;;;23.30;53.30;;;;;;5032236;28;20347;-69
2023/08/31 04:27:58;;;;;;;;;;;22.90;54.40;;;;;;5032438;28;19921;-69
2023/08/31 04:30:25;;;;;;;;;;;22.80;55.30;;;;;;5040097;28;19913;-69
2023/08/31 04:32:52;;;;;;;;;;;22.90;53.50;;;;;;5033910;28;19948;-70
2023/08/31 04:35:19;;;;;;;;;;;23.00;54.60;;;;;;5035293;28;20317;-70
2023/08/31 04:37:46;;;;;;;;;;;23.40;53.40;;;;;;5044736;28;20011;-70
2023/08/31 04:40:13;;;;;;;;;;;23.60;52.70;;;;;;5049683;28;19912;-69
2023/08/31 04:42:40;;;;;;;;;;;23.40;51.60;;;;;;5039513;28;19924;-70
2023/08/31 04:45:07;;;;;;;;;;;23.20;51.80;;;;;;5035435;28;19965;-70
2023/08/31 04:47:33;;;;;;;;;;;23.30;52.90;;;;;;5022055;28;19943;-69
2023/08/31 04:50:00;;;;;;;;;;;23.50;51.90;;;;;;5029974;28;19917;-69
2023/08/31 04:52:27;;;;;;;;;;;23.60;52.40;;;;;;5029749;28;19968;-70
2023/08/31 04:54:54;;;;;;;;;;;23.70;52.20;;;;;;5027777;28;19927;-70
2023/08/31 04:57:20;;;;;;;;;;;23.80;53.00;;;;;;5026191;28;20271;-70
2023/08/31 04:59:47;;;;;;;;;;;23.70;54.10;;;;;;5019327;28;19913;-70
2023/08/31 05:02:14;;;;;;;;;;;23.40;53.20;;;;;;5029530;28;19976;-70
2023/08/31 05:04:40;;;;;;;;;;;23.10;53.10;;;;;;5044773;28;19920;-70
2023/08/31 05:07:07;;;;;;;;;;;22.90;54.70;;;;;;5031026;28;19921;-70
2023/08/31 05:09:34;;;;;;;;;;;22.60;55.10;;;;;;5033859;28;19921;-70
2023/08/31 05:12:02;;;;;;;;;;;22.60;56.00;;;;;;5031127;28;19914;-69
2023/08/31 05:14:29;;;;;;;;;;;22.50;56.10;;;;;;5037787;28;19924;-70
2023/08/31 05:16:56;;;;;;;;;;;22.60;55.30;;;;;;5037499;28;19947;-70
2023/08/31 05:19:23;;;;;;;;;;;23.00;58.20;;;;;;5052105;28;21921;-70
2023/08/31 05:21:49;;;;;;;;;;;22.70;60.60;;;;;;5036734;28;19917;-69
2023/08/31 05:24:16;;;;;;;;;;;22.40;60.90;;;;;;5034179;28;19932;-70
2023/08/31 05:26:43;;;;;;;;;;;22.00;62.80;;;;;;5029305;28;20374;-69
2023/08/31 05:29:10;;;;;;;;;;;21.80;63.70;;;;;;5034311;28;19920;-70
2023/08/31 05:31:37;;;;;;;;;;;21.60;64.30;;;;;;5028223;28;19921;-70
2023/08/31 05:34:04;;;;;;;;;;;21.50;65.00;;;;;;5032094;28;19928;-67
2023/08/31 05:36:30;;;;;;;;;;;21.60;65.30;;;;;;5037020;28;19917;-67
2023/08/31 05:38:57;;;;;;;;;;;21.80;64.80;;;;;;5032944;28;19921;-67
2023/08/31 05:41:24;;;;;;;;;;;22.10;63.20;;;;;;5036006;28;19921;-66
2023/08/31 05:43:52;;;;;;;;;;;22.30;62.90;;;;;;5027382;28;19921;-68
2023/08/31 05:46:19;;;;;;;;;;;22.50;62.40;;;;;;5040869;28;19921;-68
2023/08/31 05:48:46;;;;;;;;;;;22.60;61.90;;;;;;5031627;28;19952;-68
2023/08/31 05:51:12;;;;;;;;;;;22.60;61.70;;;;;;5027736;28;19923;-68
2023/08/31 05:53:39;;;;;;;;;;;22.60;61.10;;;;;;5029623;28;19917;-68
2023/08/31 05:56:07;;;;;;;;;;;22.60;61.30;;;;;;5047520;28;19913;-67
2023/08/31 05:58:34;;;;;;;;;;;22.50;61.80;;;;;;5033069;28;20449;-67
2023/08/31 06:01:02;;;;;;;;;;;22.30;61.80;;;;;;5033164;28;19916;-67
2023/08/31 06:03:29;;;;;;;;;;;22.00;61.90;;;;;;5033478;28;19925;-68
2023/08/31 06:05:56;;;;;;;;;;;21.70;63.10;;;;;;5031330;28;20289;-67
2023/08/31 06:08:23;;;;;;;;;;;21.50;64.00;;;;;;5030987;28;19939;-67
2023/08/31 06:10:50;;;;;;;;;;;21.40;64.40;;;;;;5029962;28;19917;-67
2023/08/31 06:13:17;;;;;;;;;;;21.30;64.80;;;;;;5034068;28;19913;-67
2023/08/31 06:15:46;;;;;;;;;;;21.00;65.70;;;;;;5032300;28;20290;-68
2023/08/31 06:18:13;;;;;;;;;;;21.10;66.00;;;;;;5031951;28;19920;-68
2023/08/31 06:20:40;;;;;;;;;;;21.10;66.20;;;;;;5029417;28;19960;-67
2023/08/31 06:23:07;;;;;;;;;;;21.10;66.60;;;;;;5033243;28;19913;-68
2023/08/31 06:25:34;;;;;;;;;;;21.00;67.00;;;;;;5028982;28;19917;-68
2023/08/31 06:28:00;;;;;;;;;;;21.00;67.40;;;;;;5031552;28;19953;-68
2023/08/31 06:30:27;;;;;;;;;;;21.10;67.10;;;;;;5029205;28;19921;-68
2023/08/31 06:32:54;;;;;;;;;;;21.10;67.10;;;;;;5033788;28;19925;-67
2023/08/31 06:35:20;;;;;;;;;;;21.20;66.90;;;;;;5029599;28;19959;-67
2023/08/31 06:37:47;;;;;;;;;;;21.10;66.80;;;;;;5030051;28;19920;-67
2023/08/31 06:40:14;;;;;;;;;;;21.00;67.60;;;;;;5031961;28;19924;-67
2023/08/31 06:42:40;;;;;;;;;;;20.80;68.50;;;;;;5030120;28;19913;-67
2023/08/31 06:45:08;;;;;;;;;;;20.80;68.80;;;;;;5031954;28;19925;-67
2023/08/31 06:47:35;;;;;;;;;;;20.80;68.80;;;;;;5031623;28;19921;-67
2023/08/31 06:50:02;;;;;;;;;;;20.70;69.20;;;;;;5031053;28;19975;-67
2023/08/31 06:52:29;;;;;;;;;;;20.60;69.50;;;;;;5028398;28;19909;-67
2023/08/31 06:54:56;;;;;;;;;;;20.50;69.80;;;;;;5029628;28;19977;-65
2023/08/31 06:57:27;;;;;;;;;;;20.50;70.10;;;;;;5026923;28;19928;-67
2023/08/31 06:59:54;;;;;;;;;;;20.50;70.30;;;;;;5033475;28;19912;-67
2023/08/31 07:02:22;;;;;;;;;;;20.50;70.50;;;;;;5029425;28;19921;-68
2023/08/31 07:04:49;;;;;;;;;;;20.50;70.90;;;;;;5031551;28;19921;-67
2023/08/31 07:07:16;;;;;;;;;;;20.40;71.40;;;;;;5027640;28;19925;-69
2023/08/31 07:09:43;;;;;;;;;;;20.30;72.30;;;;;;5029413;28;19920;-67
2023/08/31 07:12:10;;;;;;;;;;;20.40;72.60;;;;;;5030783;28;19913;-67
2023/08/31 07:14:37;;;;;;;;;;;20.40;72.40;;;;;;5029642;28;19977;-68
2023/08/31 07:17:03;;;;;;;;;;;20.20;72.50;;;;;;5028036;28;19917;-67
2023/08/31 07:19:30;;;;;;;;;;;20.10;73.20;;;;;;5027249;28;20291;-67
2023/08/31 07:21:57;;;;;;;;;;;20.10;73.50;;;;;;5028395;28;19917;-67
2023/08/31 07:24:24;;;;;;;;;;;20.00;73.40;;;;;;5027306;28;19940;-68
2023/08/31 07:26:51;;;;;;;;;;;20.00;73.70;;;;;;5030879;28;20016;-67
2023/08/31 07:29:17;;;;;;;;;;;19.80;74.00;;;;;;5028703;28;19923;-67
2023/08/31 07:31:44;;;;;;;;;;;19.80;74.50;;;;;;5029869;28;20020;-67
2023/08/31 07:34:10;;;;;;;;;;;19.80;74.60;;;;;;5029671;28;19920;-67
2023/08/31 07:36:37;;;;;;;;;;;19.80;74.70;;;;;;5029227;28;19913;-67
2023/08/31 07:39:05;;;;;;;;;;;19.70;75.20;;;;;;5028415;28;19996;-68
2023/08/31 07:41:31;;;;;;;;;;;19.70;75.40;;;;;;5027954;28;19963;-68
2023/08/31 07:43:58;;;;;;;;;;;19.70;75.50;;;;;;5030040;28;20374;-68
2023/08/31 07:46:25;;;;;;;;;;;19.60;76.10;;;;;;5029832;28;20031;-67
2023/08/31 07:48:52;;;;;;;;;;;19.60;75.90;;;;;;5029566;28;19921;-67
2023/08/31 07:51:23;;;;;;;;;;;19.60;76.00;;;;;;5030750;28;19924;-68
2023/08/31 07:53:49;;;;;;;;;;;19.70;75.90;;;;;;5030818;28;19917;-67
2023/08/31 07:56:16;;;;;;;;;;;19.50;76.60;;;;;;5028300;28;19917;-68
2023/08/31 07:58:43;;;;;;;;;;;19.30;77.80;;;;;;5029627;28;20333;-68
2023/08/31 08:01:09;;;;;;;;;;;19.30;77.70;;;;;;5027600;28;19924;-71
2023/08/31 08:03:36;;;;;;;;;;;19.30;77.90;;;;;;5035840;28;20263;-71
2023/08/31 08:06:03;;;;;;;;;;;19.00;78.70;;;;;;5026886;28;19920;-71
2023/08/31 08:08:30;;;;;;;;;;;18.80;80.40;;;;;;5031380;28;20271;-71
2023/08/31 08:10:57;;;;;;;;;;;18.60;81.90;;;;;;5031109;28;19917;-70
2023/08/31 08:13:23;;;;;;;;;;;18.40;82.80;;;;;;5028154;28;20247;-72
2023/08/31 08:15:50;;;;;;;;;;;18.30;83.90;;;;;;5029191;28;19921;-71
2023/08/31 08:18:17;;;;;;;;;;;18.20;85.00;;;;;;5032516;28;19913;-71
2023/08/31 08:20:43;;;;;;;;;;;18.10;85.80;;;;;;5027510;28;19928;-73
2023/08/31 08:23:10;;;;;;;;;;;18.00;86.60;;;;;;5029706;28;19913;-71
2023/08/31 08:25:37;;;;;;;;;;;17.80;87.40;;;;;;5026104;28;19964;-71
2023/08/31 08:28:03;;;;;;;;;;;17.70;88.30;;;;;;5028855;28;19925;-72
2023/08/31 08:30:30;;;;;;;;;;;17.70;89.00;;;;;;5029164;28;19913;-72
2023/08/31 08:32:57;;;;;;;;;;;17.60;89.80;;;;;;5030534;28;19913;-71
2023/08/31 08:35:23;;;;;;;;;;;17.60;90.10;;;;;;5027463;28;20332;-73
2023/08/31 08:37:50;;;;;;;;;;;17.40;90.70;;;;;;5028841;28;20355;-72
2023/08/31 08:40:17;;;;;;;;;;;17.20;91.20;;;;;;5026346;28;19917;-69
2023/08/31 08:42:46;;;;;;;;;;;17.10;91.40;;;;;;5029696;28;19917;-70
2023/08/31 08:45:16;;;;;;;;;;;17.10;91.70;;;;;;5027927;28;19925;-70
2023/08/31 08:47:43;;;;;;;;;;;17.10;91.80;;;;;;5030431;28;19972;-70
2023/08/31 08:50:11;;;;;;;;;;;17.10;91.90;;;;;;5027535;28;19913;-70
2023/08/31 08:52:38;;;;;;;;;;;17.10;91.90;;;;;;5026897;28;20355;-70
2023/08/31 08:55:05;;;;;;;;;;;17.00;92.40;;;;;;5026548;28;20007;-71
2023/08/31 08:57:32;;;;;;;;;;;17.00;92.20;;;;;;5026245;28;19917;-70
2023/08/31 08:59:59;;;;;;;;;;;16.90;92.20;;;;;;5031625;28;19956;-70
2023/08/31 09:02:25;;;;;;;;;;;16.60;92.50;;;;;;5026647;28;20395;-71
2023/08/31 09:04:54;;;;;;;;;;;16.40;92.90;;;;;;5026839;28;20398;-71
2023/08/31 09:07:21;;;;;;;;;;;16.40;93.50;;;;;;5027912;28;19929;-71
2023/08/31 09:09:52;;;;;;;;;;;16.20;93.60;;;;;;5030030;28;19921;-72
2023/08/31 09:12:19;;;;;;;;;;;16.10;93.90;;;;;;5026368;28;21430;-71
2023/08/31 09:14:57;;;;;;;;;;;16.10;94.40;;;;;;5029233;28;19945;-71
2023/08/31 09:17:26;;;;;;;;;;;16.10;94.30;;;;;;5043810;28;19913;-72
2023/08/31 09:20:06;;;;;;;;;;;16.00;94.30;;;;;;5025047;28;20299;-71
2023/08/31 09:22:34;;;;;;;;;;;16.00;94.40;;;;;;5025579;28;19945;-71
2023/08/31 09:25:00;;;;;;;;;;;16.00;94.60;;;;;;5026180;28;19921;-71
2023/08/31 09:27:27;;;;;;;;;;;16.00;94.70;;;;;;5025279;28;19988;-72
2023/08/31 09:29:57;;;;;;;;;;;16.00;94.70;;;;;;5024829;28;19917;-72
2023/08/31 09:32:23;;;;;;;;;;;16.00;94.80;;;;;;5021045;28;20333;-71
2023/08/31 09:34:50;;;;;;;;;;;16.00;94.80;;;;;;5026457;28;19921;-71
2023/08/31 09:37:17;;;;;;;;;;;16.10;94.80;;;;;;5026831;28;19914;-71
2023/08/31 09:39:44;;;;;;;;;;;16.10;94.70;;;;;;5029035;28;19913;-71
2023/08/31 09:42:11;;;;;;;;;;;16.20;94.70;;;;;;5030315;28;19913;-72
2023/08/31 09:44:47;;;;;;;;;;;16.10;94.90;;;;;;5030022;28;20016;-71
2023/08/31 09:47:14;;;;;;;;;;;16.10;95.00;;;;;;5032314;28;19944;-68
2023/08/31 09:49:42;;;;;;;;;;;16.10;95.20;;;;;;5029342;28;20008;-71
2023/08/31 09:52:09;;;;;;;;;;;16.10;95.40;;;;;;5028093;28;20003;-71
2023/08/31 09:54:37;;;;;;;;;;;16.10;95.40;;;;;;5025326;28;19997;-71
2023/08/31 09:57:04;;;;;;;;;;;16.10;95.60;;;;;;5026962;28;20024;-71
2023/08/31 09:59:31;;;;;;;;;;;16.10;95.70;;;;;;5029308;28;19963;-70
2023/08/31 10:02:01;;;;;;;;;;;16.00;95.90;;;;;;5024308;28;20212;-72
2023/08/31 10:04:30;;;;;;;;;;;16.00;95.90;;;;;;5028697;28;19948;-71
2023/08/31 10:06:57;;;;;;;;;;;16.00;95.90;;;;;;5030785;28;19954;-70
2023/08/31 10:09:24;;;;;;;;;;;16.00;96.10;;;;;;5029286;28;19917;-71
2023/08/31 10:11:50;;;;;;;;;;;16.10;95.70;;;;;;5030526;28;20011;-71
2023/08/31 10:14:20;;;;;;;;;;;16.10;95.80;;;;;;5029113;28;19943;-71
2023/08/31 10:16:48;;;;;;;;;;;16.10;96.10;;;;;;5026786;28;19952;-71
2023/08/31 10:19:15;;;;;;;;;;;16.00;96.00;;;;;;5031604;28;20366;-70
2023/08/31 10:21:45;;;;;;;;;;;15.90;95.90;;;;;;5026247;28;19917;-71
2023/08/31 10:24:12;;;;;;;;;;;15.90;96.10;;;;;;5029622;28;19972;-72
2023/08/31 10:26:39;;;;;;;;;;;15.90;96.10;;;;;;5030490;28;20011;-72
2023/08/31 10:29:06;;;;;;;;;;;15.90;96.10;;;;;;5036840;28;19925;-71
2023/08/31 10:31:33;;;;;;;;;;;15.80;96.10;;;;;;5029406;28;19944;-68
2023/08/31 10:34:03;;;;;;;;;;;15.80;96.40;;;;;;5029550;28;20291;-71
2023/08/31 10:36:48;;;;;;;;;;;15.70;96.60;;;;;;5031919;28;19917;-72
2023/08/31 10:39:19;;;;;;;;;;;15.90;96.30;;;;;;5033669;28;19917;-71
2023/08/31 10:42:00;;;;;;;;;;;15.90;95.90;;;;;;5032597;28;19964;-71
2023/08/31 10:44:28;;;;;;;;;;;15.70;96.00;;;;;;5033319;28;19960;-71
2023/08/31 10:46:55;;;;;;;;;;;15.60;96.40;;;;;;5031641;28;19932;-71
2023/08/31 10:49:22;;;;;;;;;;;15.60;96.80;;;;;;5036844;28;19960;-71
2023/08/31 10:51:50;;;;;;;;;;;15.70;96.40;;;;;;5027079;28;20007;-71
2023/08/31 10:54:19;;;;;;;;;;;15.80;95.80;;;;;;5025940;28;19925;-71
2023/08/31 10:57:00;;;;;;;;;;;15.60;96.00;;;;;;5030025;28;19927;-69
2023/08/31 10:59:41;;;;;;;;;;;15.40;96.50;;;;;;5033856;28;19924;-71
2023/08/31 11:02:11;;;;;;;;;;;15.20;96.60;;;;;;5027282;28;19913;-71
2023/08/31 11:04:54;;;;;;;;;;;15.00;96.80;;;;;;5031598;28;19913;-70
2023/08/31 11:07:24;;;;;;;;;;;14.90;97.70;;;;;;5031444;28;20023;-70
2023/08/31 11:09:50;;;;;;;;;;;14.80;97.30;;;;;;5030883;28;19913;-72
2023/08/31 11:12:17;;;;;;;;;;;14.70;97.50;;;;;;5028079;28;19921;-70
2023/08/31 11:14:44;;;;;;;;;;;14.60;97.80;;;;;;5030695;28;19913;-70
2023/08/31 11:17:10;;;;;;;;;;;14.70;97.70;;;;;;5029464;28;20362;-71
2023/08/31 11:19:37;;;;;;;;;;;14.70;97.50;;;;;;5030388;28;19920;-71
2023/08/31 11:22:04;;;;;;;;;;;14.70;97.70;;;;;;5029839;28;19963;-71
2023/08/31 11:24:32;;;;;;;;;;;14.90;97.30;;;;;;5027302;28;19920;-71
2023/08/31 11:26:58;;;;;;;;;;;14.80;97.40;;;;;;5029640;28;19924;-70
2023/08/31 11:29:25;;;;;;;;;;;14.80;97.30;;;;;;5029984;28;19927;-70
2023/08/31 11:31:52;;;;;;;;;;;15.00;97.20;;;;;;5027221;28;20007;-71
2023/08/31 11:34:19;;;;;;;;;;;14.80;97.20;;;;;;5027495;28;20382;-71
2023/08/31 11:36:47;;;;;;;;;;;14.40;98.00;;;;;;5027542;28;20286;-71
2023/08/31 11:39:14;;;;;;;;;;;14.50;97.90;;;;;;5032557;28;19924;-70
2023/08/31 11:41:42;;;;;;;;;;;14.20;98.00;;;;;;5030041;28;19909;-70
2023/08/31 11:44:09;;;;;;;;;;;14.10;98.60;;;;;;5032567;28;19935;-69
2023/08/31 11:46:40;;;;;;;;;;;14.30;98.50;;;;;;5029372;28;19919;-70
2023/08/31 11:49:07;;;;;;;;;;;14.40;98.50;;;;;;5027977;28;19921;-71
2023/08/31 11:51:34;;;;;;;;;;;14.40;97.90;;;;;;5026918;28;20458;-71
2023/08/31 11:54:04;;;;;;;;;;;14.10;98.10;;;;;;5031033;28;19916;-71
2023/08/31 11:56:51;;;;;;;;;;;14.00;98.50;;;;;;5025829;28;19917;-70
2023/08/31 11:59:18;;;;;;;;;;;14.00;98.60;;;;;;5027720;28;20016;-70
2023/08/31 12:01:48;;;;;;;;;;;13.80;98.90;;;;;;5032424;28;19932;-71
2023/08/31 12:04:16;;;;;;;;;;;13.80;98.90;;;;;;5026194;28;19927;-71
2023/08/31 12:06:47;;;;;;;;;;;13.80;99.00;;;;;;5027725;28;19921;-71
2023/08/31 12:09:13;;;;;;;;;;;13.70;99.10;;;;;;5030782;28;20016;-71
2023/08/31 12:11:40;;;;;;;;;;;13.70;99.50;;;;;;5024537;28;20433;-71
2023/08/31 12:14:22;;;;;;;;;;;13.60;99.40;;;;;;5025600;28;19927;-71
2023/08/31 12:16:50;;;;;;;;;;;13.60;99.70;;;;;;5032382;28;19913;-70
2023/08/31 12:19:17;;;;;;;;;;;13.60;99.70;;;;;;5028973;28;19963;-70
2023/08/31 12:21:44;;;;;;;;;;;13.70;99.70;;;;;;5028483;28;19956;-70
2023/08/31 12:24:11;;;;;;;;;;;13.60;99.60;;;;;;5024725;28;20092;-70
2023/08/31 12:26:38;;;;;;;;;;;13.60;99.50;;;;;;5026083;28;19975;-70
2023/08/31 12:29:05;;;;;;;;;;;13.50;99.40;;;;;;5029416;28;19928;-70
2023/08/31 12:31:32;;;;;;;;;;;13.40;99.30;;;;;;5029914;28;19939;-70
2023/08/31 12:34:00;;;;;;;;;;;13.30;99.20;;;;;;5029263;28;20314;-71
2023/08/31 12:36:27;;;;;;;;;;;13.20;99.30;;;;;;5030581;28;19952;-70
2023/08/31 12:38:53;;;;;;;;;;;13.10;99.40;;;;;;5028925;28;19909;-70
2023/08/31 12:41:20;;;;;;;;;;;13.00;99.60;;;;;;5029082;28;19910;-70
2023/08/31 12:43:47;;;;;;;;;;;13.10;99.60;;;;;;5031819;28;19921;-70
2023/08/31 12:46:13;;;;;;;;;;;13.10;99.40;;;;;;5031463;28;19917;-71
2023/08/31 12:48:40;;;;;;;;;;;13.20;99.30;;;;;;5031247;28;19981;-70
2023/08/31 12:51:07;;;;;;;;;;;13.00;99.20;;;;;;5043502;28;19923;-70
2023/08/31 12:53:37;;;;;;;;;;;12.90;99.30;;;;;;5033914;28;19909;-71
2023/08/31 12:56:08;;;;;;;;;;;12.90;99.70;;;;;;5025657;28;22199;-70
2023/08/31 12:58:34;;;;;;;;;;;12.80;99.50;;;;;;5028855;28;19917;-70
2023/08/31 13:01:02;;;;;;;;;;;12.90;99.70;;;;;;5029482;28;19921;-70
2023/08/31 13:03:28;;;;;;;;;;;12.90;99.60;;;;;;5027925;28;19921;-70
2023/08/31 13:05:58;;;;;;;;;;;12.90;99.60;;;;;;5029561;28;20003;-70
2023/08/31 13:08:25;;;;;;;;;;;12.80;99.70;;;;;;5031360;28;20302;-71
2023/08/31 13:10:53;;;;;;;;;;;12.70;99.80;;;;;;5029748;28;19914;-70
2023/08/31 13:13:20;;;;;;;;;;;12.70;99.90;;;;;;5032519;28;19917;-71
2023/08/31 13:15:47;;;;;;;;;;;12.70;99.70;;;;;;5032039;28;19917;-70
2023/08/31 13:18:14;;;;;;;;;;;12.70;99.90;;;;;;5027533;28;22386;-70
2023/08/31 13:20:41;;;;;;;;;;;12.60;99.80;;;;;;5030504;28;20286;-70
2023/08/31 13:23:07;;;;;;;;;;;12.50;99.90;;;;;;5032699;28;21665;-70
2023/08/31 13:25:35;;;;;;;;;;;12.50;99.80;;;;;;5029792;28;19913;-68
2023/08/31 13:28:03;;;;;;;;;;;12.50;99.40;;;;;;5030145;28;19938;-70
2023/08/31 13:30:30;;;;;;;;;;;12.30;99.30;;;;;;5027013;28;20374;-69
2023/08/31 13:32:57;;;;;;;;;;;12.30;99.60;;;;;;5030933;28;19917;-70
2023/08/31 13:35:24;;;;;;;;;;;12.20;99.70;;;;;;5025875;28;20012;-70
2023/08/31 13:37:51;;;;;;;;;;;12.20;99.90;;;;;;5027922;28;20385;-69
2023/08/31 13:40:17;;;;;;;;;;;12.20;99.90;;;;;;5035174;28;20011;-70
2023/08/31 13:42:59;;;;;;;;;;;12.10;99.90;;;;;;5032541;28;19921;-69
2023/08/31 13:45:26;;;;;;;;;;;12.10;99.90;;;;;;5033288;28;19944;-69
2023/08/31 13:47:53;;;;;;;;;;;12.20;99.90;;;;;;5030892;28;19929;-70
2023/08/31 13:50:20;;;;;;;;;;;12.30;99.90;;;;;;5032205;28;19913;-68
2023/08/31 13:52:47;;;;;;;;;;;12.30;99.90;;;;;;5032373;28;19924;-70
2023/08/31 13:55:13;;;;;;;;;;;12.40;99.90;;;;;;5032113;28;20321;-69
2023/08/31 13:57:41;;;;;;;;;;;12.40;99.90;;;;;;5030645;28;19927;-69
2023/08/31 14:00:11;;;;;;;;;;;12.30;99.90;;;;;;5031892;28;19929;-70
2023/08/31 14:02:38;;;;;;;;;;;12.30;99.90;;;;;;5034460;28;20316;-70
2023/08/31 14:05:06;;;;;;;;;;;12.40;99.90;;;;;;5032257;28;19959;-70
2023/08/31 14:07:33;;;;;;;;;;;12.50;99.90;;;;;;5046940;28;19929;-70
2023/08/31 14:10:00;;;;;;;;;;;12.50;99.90;;;;;;5031963;28;20273;-69
2023/08/31 14:12:26;;;;;;;;;;;12.50;99.90;;;;;;5030845;28;20486;-70
2023/08/31 14:14:54;;;;;;;;;;;12.40;99.90;;;;;;5033079;28;19917;-69
2023/08/31 14:17:21;;;;;;;;;;;12.40;99.90;;;;;;5034733;28;19913;-69
2023/08/31 14:19:49;;;;;;;;;;;12.50;99.90;;;;;;5033300;28;20105;-70